Time;durP1;ratioP1;P1;durP2;ratioP2;P2;SDS_P1;SDS_P2;PMS_P1;PMS_P2;Temp;Humidity;BMP_temperature;BMP_pressure;BME280_temperature;BME280_humidity;BME280_pressure;Samples;Min_cycle;Max_cycle;Signal;HPM_P1;HPM_P2
2021/11/27 00:00:30;;;;;;;48.05;34.67;;;1.10;99.90;;;;;;5024319;28;20023;-73
2021/11/27 00:02:58;;;;;;;49.28;34.08;;;1.10;99.90;;;;;;5019933;28;20018;-74
2021/11/27 00:05:25;;;;;;;44.72;32.65;;;1.10;99.90;;;;;;5007655;28;20488;-73
2021/11/27 00:07:51;;;;;;;50.50;34.97;;;1.10;99.90;;;;;;5046449;28;20029;-73
2021/11/27 00:10:20;;;;;;;46.67;32.90;;;1.30;99.90;;;;;;5045698;28;20025;-73
2021/11/27 00:12:47;;;;;;;47.30;32.25;;;1.10;99.90;;;;;;5040383;28;20025;-73
2021/11/27 00:15:14;;;;;;;45.88;31.60;;;1.10;99.90;;;;;;5043692;28;20032;-74
2021/11/27 00:17:40;;;;;;;46.05;32.65;;;1.10;99.90;;;;;;5026084;28;20496;-74
2021/11/27 00:20:10;;;;;;;45.15;30.25;;;1.20;99.90;;;;;;5022034;28;20025;-73
2021/11/27 00:22:36;;;;;;;44.10;31.25;;;1.20;99.90;;;;;;5029931;28;20116;-74
2021/11/27 00:25:02;;;;;;;43.75;31.55;;;1.20;99.90;;;;;;5039049;28;20104;-73
2021/11/27 00:27:28;;;;;;;42.90;30.38;;;1.30;99.90;;;;;;5037463;28;20017;-73
2021/11/27 00:29:55;;;;;;;46.45;33.08;;;1.20;99.90;;;;;;5010115;28;20491;-75
2021/11/27 00:32:21;;;;;;;42.25;30.55;;;1.20;99.90;;;;;;5034015;28;20014;-75
2021/11/27 00:34:47;;;;;;;42.05;30.42;;;1.30;99.90;;;;;;5028159;28;20480;-74
2021/11/27 00:37:13;;;;;;;42.85;29.90;;;1.20;99.90;;;;;;5029881;28;20041;-74
2021/11/27 00:39:38;;;;;;;38.80;29.48;;;1.30;99.90;;;;;;5019962;28;20037;-73
2021/11/27 00:42:04;;;;;;;41.00;29.85;;;1.30;99.90;;;;;;5035465;28;20542;-73
2021/11/27 00:44:30;;;;;;;38.33;28.50;;;1.30;99.90;;;;;;5020388;28;20495;-73
2021/11/27 00:46:55;;;;;;;41.70;29.38;;;1.40;99.90;;;;;;5038019;28;20138;-73
2021/11/27 00:49:22;;;;;;;35.45;26.77;;;1.40;99.90;;;;;;5042939;28;20136;-73
2021/11/27 00:51:48;;;;;;;36.10;27.27;;;1.40;99.90;;;;;;5033835;28;20018;-73
2021/11/27 00:54:15;;;;;;;35.70;27.25;;;1.40;99.90;;;;;;5032856;28;20059;-73
2021/11/27 00:56:41;;;;;;;39.35;27.33;;;1.40;99.90;;;;;;5023203;28;20025;-74
2021/11/27 00:59:06;;;;;;;37.05;27.23;;;1.50;99.90;;;;;;5004845;28;20018;-74
2021/11/27 01:01:33;;;;;;;36.65;27.17;;;1.40;99.90;;;;;;5018520;28;20387;-73
2021/11/27 01:04:00;;;;;;;35.60;26.33;;;1.50;99.90;;;;;;5007552;28;20032;-73
2021/11/27 01:06:27;;;;;;;33.38;26.10;;;1.50;99.90;;;;;;5041546;28;20028;-73
2021/11/27 01:08:56;;;;;;;35.47;26.38;;;1.50;99.90;;;;;;5031600;28;20032;-74
2021/11/27 01:11:30;;;;;;;34.05;24.95;;;1.50;99.90;;;;;;5026496;28;20025;-73
2021/11/27 01:14:00;;;;;;;34.63;27.08;;;1.50;99.90;;;;;;5038087;28;20028;-74
2021/11/27 01:16:29;;;;;;;30.95;25.40;;;1.50;99.90;;;;;;5017549;28;20487;-74
2021/11/27 01:18:55;;;;;;;34.80;25.92;;;1.50;99.90;;;;;;5028279;28;20021;-74
2021/11/27 01:21:25;;;;;;;32.85;24.73;;;1.50;99.90;;;;;;5031617;28;20022;-74
2021/11/27 01:23:53;;;;;;;34.80;26.23;;;1.50;99.90;;;;;;5025884;28;20052;-74
2021/11/27 01:26:19;;;;;;;32.80;24.30;;;1.50;99.90;;;;;;5039407;28;20075;-73
2021/11/27 01:28:45;;;;;;;33.92;25.73;;;1.50;99.90;;;;;;5035484;28;20030;-74
2021/11/27 01:31:10;;;;;;;31.50;24.35;;;1.50;99.90;;;;;;5037220;28;20021;-74
2021/11/27 01:33:37;;;;;;;32.70;25.08;;;1.50;99.90;;;;;;5040359;28;20021;-73
2021/11/27 01:36:04;;;;;;;32.35;23.83;;;1.60;99.90;;;;;;5034862;28;20103;-74
2021/11/27 01:38:30;;;;;;;30.50;23.80;;;1.60;99.90;;;;;;5012097;28;20025;-73
2021/11/27 01:40:56;;;;;;;29.58;23.25;;;1.60;99.90;;;;;;5028311;28;20048;-73
2021/11/27 01:43:23;;;;;;;31.50;23.83;;;1.60;99.90;;;;;;5009602;28;20021;-73
2021/11/27 01:45:49;;;;;;;30.63;23.42;;;1.60;99.90;;;;;;5027166;28;20124;-74
2021/11/27 01:48:18;;;;;;;29.77;23.42;;;1.60;99.90;;;;;;5013282;28;20120;-74
2021/11/27 01:50:50;;;;;;;30.05;24.48;;;1.60;99.90;;;;;;5043330;28;20021;-75
2021/11/27 01:53:17;;;;;;;30.17;23.65;;;1.60;99.90;;;;;;5014574;28;20104;-74
2021/11/27 01:55:43;;;;;;;30.45;23.58;;;1.60;99.90;;;;;;5043777;28;20032;-73
2021/11/27 01:58:09;;;;;;;30.80;24.98;;;1.60;99.90;;;;;;5038529;28;20021;-74
2021/11/27 02:00:42;;;;;;;33.00;24.08;;;1.60;99.90;;;;;;5039043;28;20386;-74
2021/11/27 02:03:07;;;;;;;31.77;23.95;;;1.60;99.90;;;;;;5034092;28;20498;-74
2021/11/27 02:05:33;;;;;;;31.75;24.73;;;1.60;99.90;;;;;;5019195;28;20112;-74
2021/11/27 02:08:01;;;;;;;31.67;23.75;;;1.60;99.90;;;;;;5033718;28;20044;-74
2021/11/27 02:10:27;;;;;;;31.15;24.80;;;1.50;99.90;;;;;;5030938;28;20475;-73
2021/11/27 02:12:52;;;;;;;30.42;24.45;;;1.60;99.90;;;;;;5015226;28;20530;-74
2021/11/27 02:15:19;;;;;;;31.48;24.05;;;1.60;99.90;;;;;;5032770;28;20049;-74
2021/11/27 02:17:45;;;;;;;29.30;23.92;;;1.60;99.90;;;;;;5024108;28;20029;-74
2021/11/27 02:20:11;;;;;;;31.45;24.65;;;1.60;99.90;;;;;;5037062;28;20022;-73
2021/11/27 02:22:37;;;;;;;30.77;24.13;;;1.60;99.90;;;;;;5044102;28;20029;-74
2021/11/27 02:25:10;;;;;;;30.77;24.77;;;1.60;99.90;;;;;;5036752;28;20033;-74
2021/11/27 02:27:36;;;;;;;29.20;23.63;;;1.60;99.90;;;;;;5036857;28;20029;-74
2021/11/27 02:30:03;;;;;;;28.70;23.33;;;1.60;99.90;;;;;;5041706;28;20036;-73
2021/11/27 02:32:28;;;;;;;28.70;22.75;;;1.60;99.90;;;;;;5027050;28;20021;-74
2021/11/27 02:34:54;;;;;;;29.95;23.63;;;1.60;99.90;;;;;;5023344;28;20390;-74
2021/11/27 02:37:20;;;;;;;28.27;22.80;;;1.60;99.90;;;;;;5041190;28;20087;-74
2021/11/27 02:39:46;;;;;;;28.08;22.73;;;1.60;99.90;;;;;;5031554;28;20033;-74
2021/11/27 02:42:11;;;;;;;27.02;21.77;;;1.70;99.90;;;;;;5003777;28;20057;-75
2021/11/27 02:44:38;;;;;;;27.58;21.50;;;1.70;99.90;;;;;;5028176;28;20416;-75
2021/11/27 02:47:05;;;;;;;27.27;20.92;;;1.70;99.90;;;;;;5014099;28;20128;-76
2021/11/27 02:49:30;;;;;;;26.45;20.70;;;1.70;99.90;;;;;;5018016;28;20522;-75
2021/11/27 02:51:56;;;;;;;27.45;20.83;;;1.70;99.90;;;;;;5021328;28;20030;-75
2021/11/27 02:54:23;;;;;;;25.00;20.65;;;1.80;99.90;;;;;;5025003;28;20021;-75
2021/11/27 02:56:48;;;;;;;24.75;20.30;;;1.70;99.90;;;;;;5023629;28;20048;-75
2021/11/27 02:59:20;;;;;;;24.63;20.50;;;1.80;99.90;;;;;;5014949;28;20026;-75
2021/11/27 03:01:49;;;;;;;22.25;19.15;;;1.80;99.90;;;;;;5004963;28;20099;-75
2021/11/27 03:04:15;;;;;;;23.33;18.98;;;1.80;99.90;;;;;;5031254;28;20260;-75
2021/11/27 03:06:43;;;;;;;24.10;19.50;;;1.80;99.90;;;;;;5002337;28;20018;-74
2021/11/27 03:09:09;;;;;;;24.17;19.77;;;1.90;99.90;;;;;;5027289;28;20053;-73
2021/11/27 03:11:36;;;;;;;25.42;19.83;;;1.80;99.90;;;;;;5018508;28;20461;-73
2021/11/27 03:14:02;;;;;;;22.35;19.50;;;1.80;99.90;;;;;;5012581;28;20048;-73
2021/11/27 03:16:30;;;;;;;22.15;19.27;;;1.80;99.90;;;;;;5034777;28;20033;-74
2021/11/27 03:18:56;;;;;;;24.77;20.15;;;1.80;99.90;;;;;;5021874;28;20426;-73
2021/11/27 03:21:22;;;;;;;23.17;19.27;;;1.80;99.90;;;;;;5005958;28;20029;-74
2021/11/27 03:23:49;;;;;;;22.50;19.45;;;1.80;99.90;;;;;;5026893;28;20037;-75
2021/11/27 03:26:15;;;;;;;22.50;19.55;;;1.90;99.90;;;;;;5019389;28;20029;-75
2021/11/27 03:28:42;;;;;;;22.38;19.23;;;1.90;99.90;;;;;;5021877;28;20060;-75
2021/11/27 03:31:07;;;;;;;23.95;20.13;;;1.90;99.90;;;;;;5022629;28;20081;-75
2021/11/27 03:33:34;;;;;;;23.02;19.85;;;1.90;99.90;;;;;;5028297;28;20049;-74
2021/11/27 03:36:00;;;;;;;21.65;18.13;;;1.90;99.90;;;;;;5014493;28;20381;-75
2021/11/27 03:38:25;;;;;;;21.67;18.75;;;1.90;99.90;;;;;;5033844;28;20139;-75
2021/11/27 03:40:51;;;;;;;21.75;18.30;;;1.90;99.90;;;;;;5035145;28;20109;-73
2021/11/27 03:43:17;;;;;;;21.15;18.05;;;1.90;99.90;;;;;;5028258;28;20033;-74
2021/11/27 03:45:43;;;;;;;20.98;17.70;;;1.90;99.90;;;;;;5014263;28;20095;-74
2021/11/27 03:48:17;;;;;;;21.65;17.80;;;1.90;99.90;;;;;;5028027;28;20030;-73
2021/11/27 03:50:47;;;;;;;21.60;17.45;;;1.90;99.90;;;;;;5010180;28;20499;-74
2021/11/27 03:53:17;;;;;;;20.13;17.98;;;1.90;99.90;;;;;;5022155;28;20030;-73
2021/11/27 03:55:44;;;;;;;21.23;18.33;;;1.90;99.90;;;;;;5033786;28;20029;-75
2021/11/27 03:58:10;;;;;;;20.48;17.85;;;1.90;99.90;;;;;;5034217;28;20021;-74
2021/11/27 04:00:37;;;;;;;21.52;18.70;;;1.90;99.90;;;;;;5003097;28;20033;-74
2021/11/27 04:03:06;;;;;;;20.65;17.92;;;1.90;99.90;;;;;;5008466;28;20030;-74
2021/11/27 04:05:33;;;;;;;21.25;17.55;;;1.80;99.90;;;;;;5011207;28;20071;-74
2021/11/27 04:07:59;;;;;;;20.77;17.35;;;1.90;99.90;;;;;;5025227;28;20053;-74
2021/11/27 04:10:26;;;;;;;20.92;17.60;;;1.90;99.90;;;;;;5027989;28;20072;-74
2021/11/27 04:12:52;;;;;;;24.77;20.27;;;1.80;99.90;;;;;;5012515;28;20083;-74
2021/11/27 04:15:18;;;;;;;21.08;17.88;;;1.80;99.90;;;;;;5033329;28;20543;-73
2021/11/27 04:17:43;;;;;;;22.48;18.08;;;1.80;99.90;;;;;;5026717;28;20105;-72
2021/11/27 04:20:09;;;;;;;20.33;18.10;;;1.80;99.90;;;;;;5029764;28;20029;-72
2021/11/27 04:22:35;;;;;;;21.30;18.25;;;1.80;99.90;;;;;;5004876;28;20126;-72
2021/11/27 04:25:01;;;;;;;20.70;18.35;;;1.90;99.90;;;;;;5030090;28;20120;-74
2021/11/27 04:27:26;;;;;;;22.85;18.83;;;1.80;99.90;;;;;;5024186;28;20037;-73
2021/11/27 04:29:52;;;;;;;19.77;17.63;;;1.80;99.90;;;;;;5026923;28;20064;-73
2021/11/27 04:32:18;;;;;;;21.48;17.73;;;1.80;99.90;;;;;;5022686;28;20025;-75
2021/11/27 04:34:43;;;;;;;23.55;19.40;;;1.80;99.90;;;;;;5000324;28;20113;-74
2021/11/27 04:37:10;;;;;;;23.20;18.65;;;1.80;99.90;;;;;;5014632;28;20541;-75
2021/11/27 04:39:40;;;;;;;23.52;19.65;;;1.70;99.90;;;;;;5002171;28;20030;-74
2021/11/27 04:42:06;;;;;;;23.65;19.08;;;1.80;99.90;;;;;;5024107;28;20087;-74
2021/11/27 04:44:32;;;;;;;21.17;18.15;;;1.70;99.90;;;;;;5026538;28;20033;-75
2021/11/27 04:46:58;;;;;;;22.20;18.77;;;1.70;99.90;;;;;;5005415;28;20034;-74
2021/11/27 04:49:24;;;;;;;22.65;19.27;;;1.80;99.90;;;;;;5030313;28;20038;-74
2021/11/27 04:51:49;;;;;;;24.70;19.88;;;1.70;99.90;;;;;;5022579;28;20032;-74
2021/11/27 04:54:15;;;;;;;21.33;18.70;;;1.80;99.90;;;;;;5016960;28;20030;-74
2021/11/27 04:56:40;;;;;;;21.23;18.92;;;1.80;99.90;;;;;;5013203;28;20026;-73
2021/11/27 04:59:06;;;;;;;23.13;19.75;;;1.70;99.90;;;;;;5026847;28;20029;-72
2021/11/27 05:01:33;;;;;;;22.00;18.95;;;1.70;99.90;;;;;;5021045;28;20028;-73
2021/11/27 05:03:58;;;;;;;21.48;18.75;;;1.70;99.90;;;;;;5028609;28;20128;-73
2021/11/27 05:06:24;;;;;;;23.27;19.95;;;1.70;99.90;;;;;;5032612;28;20500;-74
2021/11/27 05:08:50;;;;;;;23.95;20.52;;;1.70;99.90;;;;;;5032874;28;20026;-72
2021/11/27 05:11:15;;;;;;;22.45;18.80;;;1.70;99.90;;;;;;5032863;28;20120;-72
2021/11/27 05:13:41;;;;;;;24.42;19.38;;;1.80;99.90;;;;;;5019380;28;20097;-73
2021/11/27 05:16:07;;;;;;;24.02;18.95;;;1.80;99.90;;;;;;5023488;28;20045;-73
2021/11/27 05:18:34;;;;;;;21.83;18.25;;;1.70;99.90;;;;;;5010659;28;20018;-72
2021/11/27 05:21:00;;;;;;;22.52;19.42;;;1.70;99.90;;;;;;5014819;28;20025;-72
2021/11/27 05:23:26;;;;;;;22.52;18.83;;;1.80;99.90;;;;;;5017136;28;20036;-72
2021/11/27 05:25:53;;;;;;;22.75;19.42;;;1.80;99.90;;;;;;5021956;28;20037;-72
2021/11/27 05:28:18;;;;;;;22.70;19.50;;;1.80;99.90;;;;;;5032486;28;20104;-74
2021/11/27 05:30:44;;;;;;;22.02;18.95;;;1.80;99.90;;;;;;5023485;28;20072;-74
2021/11/27 05:33:14;;;;;;;21.45;18.85;;;1.80;99.90;;;;;;5014542;28;20168;-74
2021/11/27 05:35:40;;;;;;;20.23;18.08;;;1.80;99.90;;;;;;5031945;28;20104;-74
2021/11/27 05:38:06;;;;;;;21.63;18.45;;;1.80;99.90;;;;;;5018923;28;20036;-74
2021/11/27 05:40:33;;;;;;;21.85;18.60;;;1.80;99.90;;;;;;5021532;28;20427;-74
2021/11/27 05:42:59;;;;;;;20.15;17.95;;;1.80;99.90;;;;;;5025491;28;20030;-74
2021/11/27 05:45:29;;;;;;;20.63;18.13;;;1.80;99.90;;;;;;5022249;28;20029;-72
2021/11/27 05:48:00;;;;;;;21.60;19.17;;;1.80;99.90;;;;;;5023904;28;20026;-72
2021/11/27 05:50:26;;;;;;;21.52;18.88;;;1.80;99.90;;;;;;5023806;28;20079;-73
2021/11/27 05:52:53;;;;;;;22.33;19.60;;;1.90;99.90;;;;;;5045937;28;20025;-72
2021/11/27 05:55:21;;;;;;;31.25;24.70;;;1.80;99.90;;;;;;5017746;28;20018;-73
2021/11/27 05:57:47;;;;;;;31.50;27.15;;;1.80;99.90;;;;;;5045274;28;20029;-73
2021/11/27 06:00:14;;;;;;;25.85;22.08;;;1.80;99.90;;;;;;5002704;28;20041;-73
2021/11/27 06:02:41;;;;;;;21.98;19.15;;;1.80;99.90;;;;;;5018564;28;20034;-73
2021/11/27 06:05:08;;;;;;;21.70;19.33;;;1.80;99.90;;;;;;5024990;28;20508;-73
2021/11/27 06:07:33;;;;;;;20.58;18.33;;;1.80;99.90;;;;;;5012084;28;20087;-73
2021/11/27 06:09:59;;;;;;;21.35;18.98;;;1.80;99.90;;;;;;5006725;28;20025;-73
2021/11/27 06:12:24;;;;;;;21.52;18.60;;;1.80;99.90;;;;;;5031626;28;20515;-73
2021/11/27 06:14:50;;;;;;;22.35;19.13;;;1.80;99.90;;;;;;5027331;28;20053;-73
2021/11/27 06:17:16;;;;;;;20.98;17.30;;;1.80;99.90;;;;;;5025936;28;20384;-73
2021/11/27 06:19:41;;;;;;;20.25;18.05;;;1.90;99.90;;;;;;5011875;28;20479;-74
2021/11/27 06:22:07;;;;;;;21.02;18.55;;;1.80;99.90;;;;;;5025169;28;20030;-73
2021/11/27 06:24:32;;;;;;;19.40;16.98;;;1.90;99.90;;;;;;4994043;28;20400;-73
2021/11/27 06:26:58;;;;;;;19.40;17.40;;;1.80;99.90;;;;;;5013051;28;20029;-74
2021/11/27 06:29:24;;;;;;;19.92;17.23;;;1.90;99.90;;;;;;5024615;28;20369;-74
2021/11/27 06:31:49;;;;;;;19.20;17.20;;;1.80;99.90;;;;;;5027823;28;20088;-74
2021/11/27 06:34:16;;;;;;;19.70;17.60;;;1.80;99.90;;;;;;5023350;28;20029;-73
2021/11/27 06:36:42;;;;;;;21.02;17.98;;;1.80;99.90;;;;;;5026271;28;20476;-74
2021/11/27 06:39:07;;;;;;;18.92;16.92;;;1.80;99.90;;;;;;5024599;28;20029;-73
2021/11/27 06:41:33;;;;;;;19.60;16.95;;;1.80;99.90;;;;;;5029462;28;20025;-74
2021/11/27 06:43:58;;;;;;;18.63;16.65;;;1.80;99.90;;;;;;5031295;28;20476;-74
2021/11/27 06:46:24;;;;;;;20.45;18.20;;;1.80;99.90;;;;;;5031276;28;20130;-73
2021/11/27 06:48:49;;;;;;;20.60;18.27;;;1.80;99.90;;;;;;5038234;28;20683;-74
2021/11/27 06:51:15;;;;;;;21.10;18.23;;;1.80;99.90;;;;;;5019903;28;20030;-73
2021/11/27 06:53:42;;;;;;;21.38;17.83;;;1.80;99.90;;;;;;5005764;28;20025;-74
2021/11/27 06:56:08;;;;;;;20.73;17.60;;;1.80;99.90;;;;;;5028607;28;20033;-73
2021/11/27 06:58:34;;;;;;;22.23;19.92;;;1.80;99.90;;;;;;5009472;28;20108;-73
2021/11/27 07:01:00;;;;;;;20.40;17.77;;;1.70;99.90;;;;;;5016780;28;20506;-73
2021/11/27 07:03:25;;;;;;;28.08;22.45;;;1.70;99.90;;;;;;5027013;28;20037;-73
2021/11/27 07:05:51;;;;;;;32.67;24.75;;;1.60;99.90;;;;;;5021662;28;20421;-73
2021/11/27 07:08:16;;;;;;;25.88;22.13;;;1.60;99.90;;;;;;5023681;28;20030;-74
2021/11/27 07:10:43;;;;;;;26.75;21.45;;;1.50;99.90;;;;;;4997539;28;20105;-73
2021/11/27 07:13:09;;;;;;;25.45;20.48;;;1.40;99.90;;;;;;5026840;28;20116;-73
2021/11/27 07:15:35;;;;;;;24.23;20.50;;;1.40;99.90;;;;;;5021380;28;20032;-73
2021/11/27 07:18:01;;;;;;;30.67;24.55;;;1.30;99.90;;;;;;5005719;28;20026;-74
2021/11/27 07:20:27;;;;;;;32.88;25.45;;;1.20;99.90;;;;;;5015275;28;20036;-73
2021/11/27 07:22:52;;;;;;;31.90;25.02;;;1.10;99.90;;;;;;5028045;28;20075;-75
2021/11/27 07:25:18;;;;;;;38.83;28.88;;;1.10;99.90;;;;;;5018328;28;20021;-73
2021/11/27 07:27:44;;;;;;;30.40;24.67;;;1.10;99.90;;;;;;5019037;28;20030;-73
2021/11/27 07:30:10;;;;;;;46.83;32.13;;;1.00;99.90;;;;;;5034407;28;20087;-73
2021/11/27 07:32:35;;;;;;;31.52;24.58;;;1.00;99.90;;;;;;5034529;28;20384;-73
2021/11/27 07:35:02;;;;;;;32.63;25.30;;;1.00;99.90;;;;;;5035059;28;20018;-73
2021/11/27 07:37:28;;;;;;;39.03;28.10;;;0.90;99.90;;;;;;5034523;28;20030;-73
2021/11/27 07:39:54;;;;;;;36.38;27.80;;;0.90;99.90;;;;;;5020925;28;20033;-73
2021/11/27 07:42:21;;;;;;;34.78;27.42;;;0.90;99.90;;;;;;5004007;28;20049;-73
2021/11/27 07:44:47;;;;;;;33.00;27.33;;;0.90;99.90;;;;;;5019445;28;20104;-73
2021/11/27 07:47:13;;;;;;;32.92;26.58;;;0.90;99.90;;;;;;5022731;28;20034;-73
2021/11/27 07:49:38;;;;;;;36.20;26.67;;;0.90;99.90;;;;;;5019820;28;20506;-73
2021/11/27 07:52:04;;;;;;;27.92;23.25;;;0.90;99.90;;;;;;5023529;28;20033;-73
2021/11/27 07:54:30;;;;;;;29.20;23.70;;;0.90;99.90;;;;;;5027470;28;20034;-73
2021/11/27 07:56:56;;;;;;;29.98;23.23;;;0.90;99.90;;;;;;4996674;28;20527;-74
2021/11/27 07:59:23;;;;;;;28.35;23.13;;;0.90;99.90;;;;;;5014308;28;20022;-73
2021/11/27 08:01:48;;;;;;;31.45;25.17;;;0.90;99.90;;;;;;5024981;28;20022;-73
2021/11/27 08:04:15;;;;;;;30.15;23.13;;;0.90;99.90;;;;;;5010880;28;20079;-73
2021/11/27 08:06:41;;;;;;;26.60;20.73;;;0.90;99.90;;;;;;5025559;28;20025;-73
2021/11/27 08:09:07;;;;;;;23.33;20.83;;;1.00;99.90;;;;;;5011556;28;20033;-73
2021/11/27 08:11:32;;;;;;;25.75;22.27;;;1.00;99.90;;;;;;5013863;28;20063;-73
2021/11/27 08:14:00;;;;;;;27.10;22.48;;;1.00;99.90;;;;;;5028837;28;20488;-73
2021/11/27 08:16:25;;;;;;;24.58;20.58;;;0.90;99.90;;;;;;5019314;28;20034;-73
2021/11/27 08:18:51;;;;;;;25.90;21.92;;;0.90;99.90;;;;;;5021364;28;20108;-73
2021/11/27 08:21:17;;;;;;;30.08;24.38;;;0.90;99.90;;;;;;5013883;28;20056;-73
2021/11/27 08:23:42;;;;;;;28.60;23.20;;;0.90;99.90;;;;;;5014304;28;20498;-72
2021/11/27 08:26:08;;;;;;;32.55;23.73;;;0.90;99.90;;;;;;5022223;28;20488;-73
2021/11/27 08:28:33;;;;;;;29.98;24.13;;;0.90;99.90;;;;;;5030684;28;20033;-73
2021/11/27 08:30:59;;;;;;;28.67;21.50;;;0.80;99.90;;;;;;5033329;28;20105;-73
2021/11/27 08:33:25;;;;;;;28.00;22.08;;;0.90;99.90;;;;;;5002616;28;20470;-73
2021/11/27 08:35:50;;;;;;;34.30;24.73;;;0.90;99.90;;;;;;5033263;28;20037;-72
2021/11/27 08:38:16;;;;;;;27.55;22.92;;;0.90;99.90;;;;;;5028665;28;20133;-73
2021/11/27 08:40:41;;;;;;;34.10;24.95;;;0.90;99.90;;;;;;5013564;28;20453;-73
2021/11/27 08:43:07;;;;;;;36.60;27.55;;;1.00;99.90;;;;;;5013668;28;20395;-72
2021/11/27 08:45:33;;;;;;;32.40;24.65;;;1.00;99.90;;;;;;5013253;28;20022;-73
2021/11/27 08:47:58;;;;;;;30.75;23.42;;;1.00;99.90;;;;;;5026823;28;20480;-72
2021/11/27 08:50:24;;;;;;;31.77;24.63;;;1.00;99.90;;;;;;5013184;28;20034;-73
2021/11/27 08:52:50;;;;;;;33.20;23.92;;;1.00;99.90;;;;;;5017342;28;20018;-73
2021/11/27 08:55:17;;;;;;;28.27;23.10;;;1.00;99.90;;;;;;5013867;28;20030;-72
2021/11/27 08:57:42;;;;;;;35.22;26.48;;;1.00;99.90;;;;;;5019691;28;20483;-72
2021/11/27 09:00:11;;;;;;;32.58;25.50;;;1.10;99.90;;;;;;5021748;28;20034;-73
2021/11/27 09:02:38;;;;;;;27.83;22.95;;;1.10;99.90;;;;;;4995493;28;20404;-73
2021/11/27 09:05:05;;;;;;;29.17;24.27;;;1.20;99.90;;;;;;5012887;28;20106;-73
2021/11/27 09:07:30;;;;;;;33.55;26.42;;;1.20;99.90;;;;;;5000296;28;20403;-73
2021/11/27 09:09:56;;;;;;;27.45;22.50;;;1.20;99.90;;;;;;5021616;28;20049;-73
2021/11/27 09:12:22;;;;;;;32.75;25.75;;;1.20;99.90;;;;;;5017393;28;20063;-73
2021/11/27 09:14:53;;;;;;;29.50;23.40;;;1.20;99.90;;;;;;5032231;28;20029;-73
2021/11/27 09:17:19;;;;;;;31.48;24.52;;;1.20;99.90;;;;;;5014380;28;20014;-73
2021/11/27 09:19:45;;;;;;;30.23;23.45;;;1.20;99.90;;;;;;4995664;28;20450;-73
2021/11/27 09:22:11;;;;;;;32.42;24.90;;;1.20;99.90;;;;;;5008240;28;20496;-73
2021/11/27 09:24:37;;;;;;;27.98;23.33;;;1.30;99.90;;;;;;5024723;28;20034;-73
2021/11/27 09:27:03;;;;;;;32.35;23.40;;;1.20;99.90;;;;;;5013562;28;20030;-73
2021/11/27 09:29:29;;;;;;;31.25;23.95;;;1.30;99.90;;;;;;5024796;28;20033;-73
2021/11/27 09:31:54;;;;;;;29.55;23.98;;;1.30;99.90;;;;;;5013568;28;20022;-73
2021/11/27 09:34:20;;;;;;;27.00;23.00;;;1.30;99.90;;;;;;5024411;28;20365;-73
2021/11/27 09:36:47;;;;;;;26.38;22.88;;;1.40;99.90;;;;;;5045208;28;20057;-73
2021/11/27 09:39:14;;;;;;;31.45;24.40;;;1.40;99.90;;;;;;5002264;28;20072;-73
2021/11/27 09:41:43;;;;;;;31.35;25.55;;;1.50;99.90;;;;;;5025975;28;20029;-73
2021/11/27 09:44:10;;;;;;;33.75;27.77;;;1.50;99.90;;;;;;5012110;28;20029;-72
2021/11/27 09:46:39;;;;;;;33.70;28.48;;;1.50;99.90;;;;;;5012246;28;20045;-73
2021/11/27 09:49:21;;;;;;;33.67;28.55;;;1.50;99.90;;;;;;5025535;28;20509;-73
2021/11/27 09:51:48;;;;;;;22.88;20.27;;;1.60;99.90;;;;;;5021665;28;20124;-74
2021/11/27 09:54:17;;;;;;;33.20;27.02;;;1.70;99.90;;;;;;5021248;28;20022;-73
2021/11/27 09:56:44;;;;;;;29.77;24.40;;;1.80;99.90;;;;;;5004386;28;20028;-73
2021/11/27 09:59:10;;;;;;;29.38;24.40;;;1.70;99.90;;;;;;4998039;28;20029;-73
2021/11/27 10:01:38;;;;;;;31.63;25.73;;;1.80;99.90;;;;;;5021826;28;20046;-74
2021/11/27 10:04:08;;;;;;;25.15;21.20;;;1.80;99.90;;;;;;5028967;28;20021;-73
2021/11/27 10:06:37;;;;;;;27.70;22.88;;;1.80;99.90;;;;;;5021218;28;20388;-73
2021/11/27 10:09:16;;;;;;;25.23;22.00;;;2.00;99.90;;;;;;5025405;28;20084;-73
2021/11/27 10:11:43;;;;;;;21.67;18.58;;;2.40;99.90;;;;;;5006958;28;20559;-73
2021/11/27 10:14:10;;;;;;;25.70;21.85;;;2.70;99.90;;;;;;5025266;28;20504;-73
2021/11/27 10:16:58;;;;;;;22.02;19.63;;;2.90;99.90;;;;;;5007537;28;20033;-73
2021/11/27 10:19:27;;;;;;;27.83;21.90;;;2.90;99.90;;;;;;5013498;28;20431;-71
2021/11/27 10:22:00;;;;;;;27.40;22.60;;;2.90;99.90;;;;;;5000480;28;20045;-73
2021/11/27 10:24:29;;;;;;;26.60;23.63;;;2.80;99.90;;;;;;5020985;28;20387;-73
2021/11/27 10:26:55;;;;;;;29.23;26.02;;;2.80;99.90;;;;;;5024537;28;20476;-74
2021/11/27 10:29:26;;;;;;;27.00;24.10;;;2.80;99.90;;;;;;5005508;28;20083;-73
2021/11/27 10:32:14;;;;;;;26.38;22.48;;;2.80;99.90;;;;;;5023792;28;20048;-74
2021/11/27 10:34:48;;;;;;;25.27;22.55;;;2.90;99.90;;;;;;5015733;28;20041;-73
2021/11/27 10:37:25;;;;;;;28.85;25.75;;;2.80;99.90;;;;;;5021135;28;20087;-73
2021/11/27 10:40:13;;;;;;;24.80;20.90;;;2.80;99.90;;;;;;5014405;28;20076;-73
2021/11/27 10:42:46;;;;;;;21.33;18.83;;;2.80;99.90;;;;;;5006230;28;20439;-72
2021/11/27 10:45:17;;;;;;;22.63;18.98;;;2.80;99.90;;;;;;5023121;28;20034;-73
2021/11/27 10:47:44;;;;;;;21.75;18.40;;;2.70;99.90;;;;;;5021354;28;20037;-73
2021/11/27 10:50:11;;;;;;;20.27;17.30;;;2.70;99.90;;;;;;5005109;28;20056;-74
2021/11/27 10:52:37;;;;;;;21.83;18.48;;;2.70;99.90;;;;;;5024864;28;20029;-73
2021/11/27 10:55:19;;;;;;;21.70;19.08;;;2.80;99.90;;;;;;5011477;28;20022;-73
2021/11/27 10:57:46;;;;;;;26.92;24.13;;;2.80;99.90;;;;;;5010491;28;20025;-73
2021/11/27 11:00:27;;;;;;;28.75;25.65;;;2.80;99.90;;;;;;5038595;28;20136;-73
2021/11/27 11:02:53;;;;;;;26.35;23.00;;;2.90;99.90;;;;;;5001063;28;20033;-73
2021/11/27 11:05:19;;;;;;;27.48;22.10;;;3.00;99.90;;;;;;5013009;28;20498;-73
2021/11/27 11:07:56;;;;;;;24.90;22.20;;;3.00;99.90;;;;;;5018684;28;20022;-73
2021/11/27 11:10:24;;;;;;;24.50;22.00;;;3.10;99.90;;;;;;5018115;28;20030;-73
2021/11/27 11:13:16;;;;;;;22.17;19.77;;;3.10;99.90;;;;;;5022793;28;20071;-73
2021/11/27 11:15:45;;;;;;;21.15;17.55;;;3.20;99.90;;;;;;5004609;28;20400;-73
2021/11/27 11:18:21;;;;;;;20.10;17.42;;;3.30;99.90;;;;;;5024477;28;20160;-74
2021/11/27 11:20:56;;;;;;;21.20;18.65;;;3.30;99.90;;;;;;5001739;28;20041;-73
2021/11/27 11:23:27;;;;;;;20.83;18.40;;;3.40;99.90;;;;;;5017760;28;20038;-74
2021/11/27 11:26:09;;;;;;;20.20;18.05;;;3.40;99.90;;;;;;5003799;28;20022;-73
2021/11/27 11:28:37;;;;;;;21.70;18.65;;;3.40;99.90;;;;;;5033206;28;20024;-73
2021/11/27 11:31:14;;;;;;;19.27;16.90;;;3.40;99.90;;;;;;5031540;28;20443;-74
2021/11/27 11:33:45;;;;;;;19.35;16.25;;;3.60;99.90;;;;;;5022819;28;20175;-73
2021/11/27 11:36:13;;;;;;;17.75;15.85;;;3.80;99.90;;;;;;5019622;28;20364;-73
2021/11/27 11:38:41;;;;;;;18.77;16.08;;;3.90;99.90;;;;;;5023767;28;20018;-74
2021/11/27 11:41:08;;;;;;;20.40;16.60;;;4.00;99.90;;;;;;5039859;28;20021;-74
2021/11/27 11:43:34;;;;;;;18.05;16.02;;;4.10;99.90;;;;;;5032004;28;20044;-74
2021/11/27 11:46:00;;;;;;;17.83;15.85;;;4.00;99.90;;;;;;5012488;28;20030;-74
2021/11/27 11:48:28;;;;;;;18.17;15.30;;;4.00;99.90;;;;;;5019700;28;20483;-74
2021/11/27 11:51:13;;;;;;;17.60;15.68;;;3.80;99.90;;;;;;5039871;28;20069;-74
2021/11/27 11:53:45;;;;;;;18.27;16.30;;;3.60;99.90;;;;;;5030662;28;20104;-73
2021/11/27 11:56:11;;;;;;;17.60;15.77;;;3.50;99.90;;;;;;5041781;28;20010;-73
2021/11/27 11:58:43;;;;;;;18.55;16.55;;;3.50;99.90;;;;;;5047802;28;20051;-73
2021/11/27 12:01:26;;;;;;;19.95;17.50;;;3.60;99.90;;;;;;5028483;28;20052;-73
2021/11/27 12:03:52;;;;;;;18.33;16.05;;;3.50;99.90;;;;;;5043370;28;20191;-73
2021/11/27 12:06:27;;;;;;;21.08;18.10;;;3.40;99.90;;;;;;5044485;28;20448;-73
2021/11/27 12:08:57;;;;;;;20.90;18.40;;;3.40;99.90;;;;;;5026976;28;20030;-73
2021/11/27 12:11:41;;;;;;;24.80;21.27;;;3.40;99.90;;;;;;5041241;28;20047;-73
2021/11/27 12:14:22;;;;;;;21.00;18.50;;;3.60;99.90;;;;;;5025883;28;20048;-73
2021/11/27 12:17:19;;;;;;;19.60;17.45;;;3.70;99.90;;;;;;5012829;28;20075;-73
2021/11/27 12:19:50;;;;;;;19.20;16.92;;;3.80;99.90;;;;;;5037967;28;20029;-74
2021/11/27 12:22:37;;;;;;;18.52;16.33;;;3.90;99.90;;;;;;5041770;28;20018;-73
2021/11/27 12:25:05;;;;;;;17.05;15.32;;;3.90;99.90;;;;;;5027000;28;20017;-73
2021/11/27 12:27:31;;;;;;;22.23;20.02;;;3.80;99.90;;;;;;5025146;28;20187;-73
2021/11/27 12:30:08;;;;;;;20.90;18.80;;;3.90;99.90;;;;;;5030824;28;20029;-75
2021/11/27 12:32:45;;;;;;;17.58;15.75;;;3.90;99.90;;;;;;5004104;28;20025;-75
2021/11/27 12:35:30;;;;;;;19.58;17.27;;;3.90;99.90;;;;;;5038370;28;20122;-73
2021/11/27 12:38:07;;;;;;;20.27;18.27;;;4.10;99.90;;;;;;5036239;28;20023;-74